Time;durP1;ratioP1;P1;durP2;ratioP2;P2;SDS_P1;SDS_P2;PMS_P1;PMS_P2;Temp;Humidity;BMP_temperature;BMP_pressure;BME280_temperature;BME280_humidity;BME280_pressure;Samples;Min_cycle;Max_cycle;Signal;HPM_P1;HPM_P2
2024/01/31 00:02:07;;;;;;;59.03;14.20;;;;;;;2.88;100.00;100651.78;5016185;28;20072;-67
2024/01/31 00:04:35;;;;;;;20.93;11.03;;;;;;;2.78;100.00;100651.44;5032294;28;20476;-68
2024/01/31 00:07:03;;;;;;;23.67;12.35;;;;;;;2.68;100.00;100644.16;5032600;28;20049;-67
2024/01/31 00:09:29;;;;;;;19.93;11.90;;;;;;;2.71;100.00;100636.13;5032902;28;20479;-68
2024/01/31 00:11:55;;;;;;;34.30;14.90;;;;;;;2.64;100.00;100642.66;5034471;28;20113;-68
2024/01/31 00:14:21;;;;;;;32.37;15.93;;;;;;;2.60;100.00;100639.34;5001736;28;20073;-68
2024/01/31 00:16:47;;;;;;;30.83;14.67;;;;;;;2.61;100.00;100638.44;5034371;28;20048;-67
2024/01/31 00:19:13;;;;;;;24.63;13.23;;;;;;;2.56;100.00;100637.81;5033460;28;20042;-68
2024/01/31 00:21:38;;;;;;;26.90;13.10;;;;;;;2.50;100.00;100643.41;5050018;28;20107;-67
2024/01/31 00:24:05;;;;;;;24.37;13.83;;;;;;;2.50;100.00;100647.78;5015952;28;20045;-68
2024/01/31 00:26:31;;;;;;;26.23;13.30;;;;;;;2.43;100.00;100649.88;5032008;28;20084;-68
2024/01/31 00:28:58;;;;;;;27.03;12.93;;;;;;;2.45;100.00;100640.19;5048929;28;20126;-68
2024/01/31 00:31:24;;;;;;;26.20;13.03;;;;;;;2.37;100.00;100637.09;5015419;28;20110;-67
2024/01/31 00:33:50;;;;;;;25.70;13.77;;;;;;;2.40;100.00;100646.59;5048213;28;20041;-67
2024/01/31 00:36:15;;;;;;;31.47;13.83;;;;;;;2.37;100.00;100647.59;5031661;28;20049;-67
2024/01/31 00:38:41;;;;;;;27.80;13.87;;;;;;;2.44;100.00;100648.13;4998632;28;20061;-70
2024/01/31 00:41:07;;;;;;;25.30;13.47;;;;;;;2.48;100.00;100640.00;5031770;28;20492;-67
2024/01/31 00:43:33;;;;;;;29.13;14.17;;;;;;;2.40;100.00;100629.06;5015077;28;20037;-67
2024/01/31 00:46:03;;;;;;;27.73;14.27;;;;;;;2.58;100.00;100638.59;5015094;28;20056;-67
2024/01/31 00:48:28;;;;;;;28.03;14.20;;;;;;;2.51;100.00;100638.97;5031800;28;20099;-67
2024/01/31 00:50:54;;;;;;;26.97;14.00;;;;;;;2.47;100.00;100633.06;5046511;28;20045;-68
2024/01/31 00:53:20;;;;;;;29.97;14.23;;;;;;;2.47;100.00;100627.84;5030682;28;20084;-68
2024/01/31 00:55:46;;;;;;;32.10;16.13;;;;;;;2.51;100.00;100628.50;4998185;28;20365;-66
2024/01/31 00:58:12;;;;;;;30.77;14.73;;;;;;;2.52;100.00;100624.97;5047450;28;20391;-69
2024/01/31 01:00:37;;;;;;;32.30;14.73;;;;;;;2.49;100.00;100625.97;5030523;28;20673;-68
2024/01/31 01:03:03;;;;;;;35.80;16.53;;;;;;;2.46;100.00;100622.69;4998168;28;20049;-67
2024/01/31 01:05:29;;;;;;;31.70;17.40;;;;;;;2.30;100.00;100624.41;5014714;28;20080;-67
2024/01/31 01:07:55;;;;;;;29.07;15.47;;;;;;;2.28;100.00;100616.63;5032076;28;20041;-67
2024/01/31 01:10:21;;;;;;;31.77;15.23;;;;;;;2.23;100.00;100628.31;5015046;28;20514;-67
2024/01/31 01:12:47;;;;;;;29.37;13.87;;;;;;;2.21;100.00;100619.66;5014634;28;20515;-67
2024/01/31 01:15:18;;;;;;;33.17;16.50;;;;;;;2.16;100.00;100609.44;5014973;28;20053;-67
2024/01/31 01:17:44;;;;;;;24.67;14.10;;;;;;;2.15;100.00;100604.28;4998140;28;20051;-68
2024/01/31 01:20:10;;;;;;;22.50;13.03;;;;;;;2.22;100.00;100601.25;5047936;28;20041;-68
2024/01/31 01:22:36;;;;;;;31.00;15.17;;;;;;;2.17;100.00;100607.66;5031772;28;20041;-67
2024/01/31 01:25:03;;;;;;;34.97;16.97;;;;;;;2.08;100.00;100611.63;5030662;28;20045;-67
2024/01/31 01:27:31;;;;;;;29.77;15.67;;;;;;;2.08;100.00;100605.50;5014677;28;20046;-67
2024/01/31 01:29:57;;;;;;;35.30;16.50;;;;;;;2.10;100.00;100596.66;5030474;28;20037;-67
2024/01/31 01:32:23;;;;;;;35.77;16.40;;;;;;;2.04;100.00;100590.91;5014640;28;20037;-67
2024/01/31 01:34:49;;;;;;;35.67;17.00;;;;;;;2.05;100.00;100597.81;5030976;28;20044;-69
2024/01/31 01:37:15;;;;;;;34.77;16.37;;;;;;;2.06;100.00;100591.66;5014172;28;20037;-68
2024/01/31 01:39:43;;;;;;;31.87;14.23;;;;;;;2.05;100.00;100590.81;5014310;28;20099;-68
2024/01/31 01:42:09;;;;;;;31.30;15.87;;;;;;;2.07;100.00;100591.59;4999145;28;20041;-67
2024/01/31 01:44:38;;;;;;;28.30;14.90;;;;;;;2.20;100.00;100578.69;5032855;28;20076;-67
2024/01/31 01:47:04;;;;;;;32.37;15.67;;;;;;;2.06;100.00;100568.09;5029139;28;20840;-68
2024/01/31 01:49:33;;;;;;;30.73;14.97;;;;;;;2.21;100.00;100582.97;5031755;28;20032;-68
2024/01/31 01:51:59;;;;;;;35.20;16.93;;;;;;;2.10;100.00;100574.84;5050427;28;20049;-68
2024/01/31 01:54:25;;;;;;;35.17;15.30;;;;;;;2.12;100.00;100581.72;5067170;28;20055;-68
2024/01/31 01:56:51;;;;;;;35.00;14.37;;;;;;;2.20;100.00;100579.50;5034530;28;20061;-67
2024/01/31 01:59:17;;;;;;;39.63;16.97;;;;;;;2.11;100.00;100573.94;5035719;28;20152;-67
2024/01/31 02:01:44;;;;;;;37.93;18.13;;;;;;;2.12;100.00;100573.00;5053710;28;20176;-67
2024/01/31 02:04:09;;;;;;;29.23;14.67;;;;;;;2.08;100.00;100574.06;5020488;28;20170;-67
2024/01/31 02:06:35;;;;;;;52.60;18.07;;;;;;;2.00;100.00;100577.09;5036729;28;20242;-68
2024/01/31 02:09:03;;;;;;;39.33;17.27;;;;;;;1.99;100.00;100583.28;5036868;28;20348;-67
2024/01/31 02:11:30;;;;;;;33.40;15.83;;;;;;;2.12;100.00;100579.09;5036820;28;20060;-68
2024/01/31 02:13:59;;;;;;;30.03;14.57;;;;;;;2.16;100.00;100572.75;5020822;28;20064;-67
2024/01/31 02:16:26;;;;;;;36.63;15.93;;;;;;;2.08;100.00;100567.06;5054120;28;20045;-67
2024/01/31 02:18:52;;;;;;;36.93;17.37;;;;;;;2.08;100.00;100567.06;5052801;28;20127;-68
2024/01/31 02:21:19;;;;;;;34.60;16.27;;;;;;;2.15;100.00;100563.22;5019651;28;20204;-68
2024/01/31 02:23:45;;;;;;;36.33;16.77;;;;;;;2.10;100.00;100551.25;5004219;28;20049;-67
2024/01/31 02:26:11;;;;;;;30.97;14.60;;;;;;;2.27;100.00;100552.06;5017223;28;20050;-67
2024/01/31 02:28:36;;;;;;;29.40;13.33;;;;;;;2.42;100.00;100551.19;5001105;28;20042;-67
2024/01/31 02:31:02;;;;;;;36.60;15.43;;;;;;;2.42;100.00;100556.44;5050787;28;20045;-68
2024/01/31 02:33:28;;;;;;;30.97;14.67;;;;;;;2.46;100.00;100551.88;5033963;28;20052;-67
2024/01/31 02:35:54;;;;;;;28.50;14.40;;;;;;;2.54;100.00;100544.41;5050761;28;20045;-68
2024/01/31 02:38:20;;;;;;;27.07;13.13;;;;;;;2.59;100.00;100539.78;5033875;28;20052;-68
2024/01/31 02:40:45;;;;;;;29.83;14.37;;;;;;;2.56;100.00;100538.19;5035847;28;20067;-67
2024/01/31 02:43:11;;;;;;;31.50;14.53;;;;;;;2.61;100.00;100536.16;5050494;28;20071;-69
2024/01/31 02:45:37;;;;;;;27.57;13.83;;;;;;;2.62;100.00;100532.59;5034154;28;20041;-67
2024/01/31 02:48:04;;;;;;;28.47;14.10;;;;;;;2.80;100.00;100547.28;5001308;28;20107;-68
2024/01/31 02:50:31;;;;;;;35.97;15.63;;;;;;;2.72;100.00;100532.91;5017337;28;20046;-66
2024/01/31 02:52:57;;;;;;;31.67;16.13;;;;;;;2.66;100.00;100531.47;5050352;28;20049;-67
2024/01/31 02:55:23;;;;;;;32.20;14.97;;;;;;;2.55;100.00;100520.72;4999787;28;20056;-67
2024/01/31 02:57:48;;;;;;;31.33;15.07;;;;;;;2.52;100.00;100515.66;5001500;28;20163;-63
2024/01/31 03:00:15;;;;;;;31.30;16.13;;;;;;;2.45;100.00;100510.84;5047931;28;20052;-70
2024/01/31 03:02:44;;;;;;;32.80;15.43;;;;;;;2.46;100.00;100510.78;5002890;28;20040;-70
2024/01/31 03:05:11;;;;;;;43.57;19.87;;;;;;;2.45;100.00;100508.22;5052411;28;20133;-70
2024/01/31 03:07:37;;;;;;;41.70;17.53;;;;;;;2.42;100.00;100513.66;5035067;28;20286;-75
2024/01/31 03:10:03;;;;;;;37.87;17.30;;;;;;;2.39;100.00;100498.94;5052582;28;20125;-73
2024/01/31 03:12:29;;;;;;;39.83;16.70;;;;;;;2.34;100.00;100500.16;5019401;28;20091;-74
2024/01/31 03:14:56;;;;;;;39.60;16.60;;;;;;;2.42;100.00;100495.28;5037817;28;20068;-73
2024/01/31 03:17:22;;;;;;;33.70;14.83;;;;;;;2.49;100.00;100494.03;5020611;28;20040;-72
2024/01/31 03:19:47;;;;;;;48.00;17.33;;;;;;;2.49;100.00;100488.78;5052816;28;20056;-70
2024/01/31 03:22:13;;;;;;;38.80;16.23;;;;;;;2.42;100.00;100488.28;5019802;28;20353;-73
2024/01/31 03:24:39;;;;;;;37.77;16.67;;;;;;;2.48;100.00;100480.06;5051895;28;20037;-74
2024/01/31 03:27:05;;;;;;;39.63;16.47;;;;;;;2.55;100.00;100484.03;5018853;28;20037;-73
2024/01/31 03:29:31;;;;;;;34.17;16.00;;;;;;;2.61;100.00;100485.47;5018814;28;20135;-73
2024/01/31 03:31:57;;;;;;;32.73;14.00;;;;;;;2.69;100.00;100483.25;5003172;28;20143;-74
2024/01/31 03:34:23;;;;;;;29.43;13.87;;;;;;;2.71;100.00;100487.47;5035742;28;20422;-72
2024/01/31 03:36:49;;;;;;;32.33;14.67;;;;;;;2.72;100.00;100476.03;5052568;28;20047;-74
2024/01/31 03:39:15;;;;;;;32.37;13.90;;;;;;;2.83;100.00;100483.31;5036500;28;20059;-75
2024/01/31 03:41:44;;;;;;;33.07;13.47;;;;;;;2.92;100.00;100483.59;5053917;28;20049;-74
2024/01/31 03:44:10;;;;;;;30.43;12.97;;;;;;;2.88;100.00;100473.38;5036489;28;20052;-74
2024/01/31 03:46:36;;;;;;;34.63;14.20;;;;;;;2.95;100.00;100480.78;5052444;28;20120;-75
2024/01/31 03:49:02;;;;;;;39.80;15.10;;;;;;;2.89;100.00;100462.78;5018971;28;20164;-74
2024/01/31 03:51:27;;;;;;;62.30;16.80;;;;;;;2.82;100.00;100474.59;5051819;28;20457;-74
2024/01/31 03:53:54;;;;;;;145.83;19.83;;;;;;;2.68;100.00;100456.19;5052280;28;20041;-75
2024/01/31 03:56:19;;;;;;;109.57;20.03;;;;;;;2.61;100.00;100461.88;5051468;28;20102;-72
2024/01/31 03:58:45;;;;;;;57.70;18.20;;;;;;;2.58;100.00;100456.81;5017738;28;20045;-71
2024/01/31 04:01:16;;;;;;;106.23;21.50;;;;;;;2.67;100.00;100461.50;5018136;28;20505;-74
2024/01/31 04:03:44;;;;;;;94.88;21.58;;;;;;;2.48;100.00;100456.47;5002164;28;20049;-71
2024/01/31 04:06:10;;;;;;;80.83;19.20;;;;;;;2.41;100.00;100462.16;5053399;28;20132;-74
2024/01/31 04:08:36;;;;;;;39.70;16.13;;;;;;;2.44;100.00;100452.34;5038617;28;20037;-75
2024/01/31 04:11:12;;;;;;;63.73;17.90;;;;;;;2.54;100.00;100452.66;5040822;28;20049;-72
2024/01/31 04:13:44;;;;;;;96.50;20.87;;;;;;;2.44;100.00;100444.50;5061561;28;20064;-75
2024/01/31 04:16:16;;;;;;;170.90;22.73;;;;;;;2.46;100.00;100429.50;5022975;28;20048;-75
2024/01/31 04:18:42;;;;;;;89.27;19.53;;;;;;;2.26;100.00;100418.47;5000245;28;20080;-74
2024/01/31 04:21:08;;;;;;;88.97;17.33;;;;;;;2.33;100.00;100420.66;4983983;28;20472;-74
2024/01/31 04:23:34;;;;;;;60.60;18.37;;;;;;;2.33;100.00;100423.28;4985018;28;20056;-75
2024/01/31 04:26:00;;;;;;;110.33;20.67;;;;;;;2.29;100.00;100419.13;4998614;28;20033;-75
2024/01/31 04:28:26;;;;;;;61.00;18.77;;;;;;;2.28;100.00;100430.56;4998754;28;20541;-75
2024/01/31 04:30:52;;;;;;;86.17;19.63;;;;;;;2.25;100.00;100437.72;4998568;28;20080;-74
2024/01/31 04:33:20;;;;;;;57.53;18.57;;;;;;;2.23;100.00;100411.63;5015576;28;20060;-76
2024/01/31 04:35:45;;;;;;;65.87;20.67;;;;;;;2.26;100.00;100418.47;4999133;28;20045;-78
2024/01/31 04:38:11;;;;;;;47.60;17.03;;;;;;;2.27;100.00;100410.53;4982057;28;20076;-77
2024/01/31 04:40:37;;;;;;;52.97;17.20;;;;;;;2.28;100.00;100412.22;4998217;28;20033;-75
2024/01/31 04:43:03;;;;;;;63.47;20.10;;;;;;;2.23;100.00;100419.47;4982651;28;20428;-75
2024/01/31 04:45:29;;;;;;;65.33;19.13;;;;;;;2.17;100.00;100403.28;5030734;28;20061;-76
2024/01/31 04:47:55;;;;;;;59.83;19.60;;;;;;;2.16;100.00;100410.28;4966026;28;20052;-75
2024/01/31 04:50:20;;;;;;;47.67;17.33;;;;;;;2.17;100.00;100406.72;5026967;28;20057;-74
2024/01/31 04:52:46;;;;;;;56.00;19.70;;;;;;;2.16;100.00;100412.06;5019494;28;20094;-73
2024/01/31 04:55:13;;;;;;;54.07;16.97;;;;;;;2.28;100.00;100401.72;5002899;28;20037;-74
2024/01/31 04:57:40;;;;;;;51.83;17.43;;;;;;;2.25;100.00;100416.78;5050987;28;20036;-74
2024/01/31 05:00:07;;;;;;;49.07;16.57;;;;;;;2.25;100.00;100409.75;5033435;28;20041;-75
2024/01/31 05:02:33;;;;;;;50.57;18.17;;;;;;;2.12;100.00;100405.31;5000586;28;20139;-74
2024/01/31 05:05:00;;;;;;;49.90;18.53;;;;;;;2.13;100.00;100393.88;5017193;28;20536;-74
2024/01/31 05:07:26;;;;;;;42.13;16.10;;;;;;;2.09;100.00;100401.06;5050443;28;20503;-74
2024/01/31 05:09:52;;;;;;;50.00;16.73;;;;;;;2.12;100.00;100406.16;5017909;28;20052;-72
2024/01/31 05:12:18;;;;;;;44.57;17.00;;;;;;;2.09;100.00;100406.31;4999636;28;20643;-75
2024/01/31 05:14:44;;;;;;;48.43;17.47;;;;;;;2.08;100.00;100403.78;5052028;28;20066;-75
2024/01/31 05:17:15;;;;;;;49.63;17.20;;;;;;;2.12;100.00;100394.81;5019326;28;20187;-75
2024/01/31 05:19:42;;;;;;;38.07;14.90;;;;;;;2.17;100.00;100393.63;5037134;28;20032;-74
2024/01/31 05:22:08;;;;;;;43.47;16.43;;;;;;;2.12;100.00;100395.69;4986851;28;20052;-76
2024/01/31 05:24:34;;;;;;;44.23;16.03;;;;;;;2.11;100.00;100393.16;5021599;28;20053;-75
2024/01/31 05:27:03;;;;;;;41.17;15.70;;;;;;;2.11;100.00;100393.16;5002342;28;20044;-75
2024/01/31 05:29:30;;;;;;;47.77;16.53;;;;;;;2.19;100.00;100391.78;5001974;28;20068;-72
2024/01/31 05:31:56;;;;;;;44.57;16.43;;;;;;;2.17;100.00;100396.25;5002613;28;20526;-75
2024/01/31 05:34:25;;;;;;;41.63;15.57;;;;;;;2.18;100.00;100384.84;5035205;28;20055;-75
2024/01/31 05:36:51;;;;;;;41.13;15.53;;;;;;;2.17;100.00;100392.81;5035088;28;20411;-75
2024/01/31 05:39:17;;;;;;;44.73;16.73;;;;;;;2.18;100.00;100378.75;5034708;28;20045;-76
2024/01/31 05:41:43;;;;;;;43.73;15.97;;;;;;;2.22;100.00;100375.88;5026935;28;20045;-75
2024/01/31 05:44:10;;;;;;;43.07;15.30;;;;;;;2.20;100.00;100369.03;5026206;28;20041;-75
2024/01/31 05:46:37;;;;;;;43.10;14.73;;;;;;;2.24;100.00;100362.69;5016325;28;20037;-75
2024/01/31 05:49:03;;;;;;;45.67;15.33;;;;;;;2.23;100.00;100369.69;5005332;28;20040;-75
2024/01/31 05:51:29;;;;;;;39.53;14.73;;;;;;;2.25;100.00;100369.59;5055258;28;20453;-74
2024/01/31 05:53:55;;;;;;;46.47;15.53;;;;;;;2.22;100.00;100370.63;5035804;28;20435;-71
2024/01/31 05:56:22;;;;;;;44.40;15.60;;;;;;;2.30;100.00;100362.31;5017469;28;20550;-75
2024/01/31 05:58:49;;;;;;;44.00;16.97;;;;;;;2.23;100.00;100358.38;5013395;28;20480;-75
2024/01/31 06:01:16;;;;;;;41.13;15.27;;;;;;;2.13;100.00;100360.69;5025604;28;20045;-74
2024/01/31 06:03:42;;;;;;;44.33;15.40;;;;;;;2.17;100.00;100358.72;4992873;28;20045;-74
2024/01/31 06:06:08;;;;;;;46.03;16.37;;;;;;;2.12;100.00;100353.75;5040816;28;20041;-74
2024/01/31 06:08:34;;;;;;;40.83;15.17;;;;;;;2.20;100.00;100350.69;5011715;28;20403;-74
2024/01/31 06:11:08;;;;;;;47.23;15.40;;;;;;;2.20;100.00;100343.66;5009369;28;20102;-74
2024/01/31 06:13:35;;;;;;;44.20;15.67;;;;;;;2.17;100.00;100335.16;5024443;28;20088;-72
2024/01/31 06:16:02;;;;;;;46.87;16.03;;;;;;;2.15;100.00;100326.53;5010246;28;20049;-72
2024/01/31 06:18:34;;;;;;;60.77;17.53;;;;;;;2.19;100.00;100328.03;5042448;28;20038;-71
2024/01/31 06:21:02;;;;;;;45.53;15.73;;;;;;;2.15;100.00;100316.91;5003106;28;20386;-72
2024/01/31 06:23:30;;;;;;;57.47;16.33;;;;;;;2.17;100.00;100312.41;5039523;28;20041;-73
2024/01/31 06:25:56;;;;;;;57.30;17.23;;;;;;;2.08;100.00;100305.06;5041502;28;20098;-69
2024/01/31 06:28:22;;;;;;;53.73;17.43;;;;;;;2.08;100.00;100301.59;5040096;28;20049;-72
2024/01/31 06:30:58;;;;;;;46.03;16.67;;;;;;;2.14;100.00;100296.03;5016459;28;20037;-73
2024/01/31 06:33:32;;;;;;;39.83;15.43;;;;;;;2.31;100.00;100293.25;5032926;28;20037;-72
2024/01/31 06:36:08;;;;;;;44.60;15.77;;;;;;;2.20;100.00;100291.25;5030227;28;20054;-74
2024/01/31 06:38:37;;;;;;;34.07;13.90;;;;;;;2.30;100.00;100291.56;5014981;28;20041;-73
2024/01/31 06:41:03;;;;;;;38.07;14.27;;;;;;;2.20;100.00;100282.56;5015720;28;20111;-73
2024/01/31 06:43:29;;;;;;;31.27;13.20;;;;;;;2.21;100.00;100285.09;5018858;28;20064;-73
2024/01/31 06:45:56;;;;;;;36.57;14.03;;;;;;;2.26;100.00;100282.22;5035208;28;20124;-72
2024/01/31 06:48:23;;;;;;;36.60;14.57;;;;;;;2.20;100.00;100286.00;5002669;28;20508;-72
2024/01/31 06:50:49;;;;;;;33.10;13.77;;;;;;;2.22;100.00;100268.44;5034017;28;20049;-71
2024/01/31 06:53:15;;;;;;;29.37;12.43;;;;;;;2.23;100.00;100287.63;4999694;28;20468;-69
2024/01/31 06:55:41;;;;;;;30.47;12.00;;;;;;;2.27;100.00;100279.50;5007257;28;20485;-71
2024/01/31 06:58:06;;;;;;;27.17;12.70;;;;;;;2.27;100.00;100276.88;5021553;28;20053;-71
2024/01/31 07:00:32;;;;;;;26.40;11.93;;;;;;;2.27;100.00;100271.63;5027974;28;20049;-72
2024/01/31 07:02:58;;;;;;;27.20;11.40;;;;;;;2.18;100.00;100273.94;5015636;28;20060;-72
2024/01/31 07:05:28;;;;;;;29.80;12.77;;;;;;;2.22;100.00;100260.56;5033334;28;20152;-71
2024/01/31 07:07:55;;;;;;;;;;;;;;;2.48;100.00;100270.34;5027507;28;20049;-73
2024/01/31 07:10:21;;;;;;;28.00;12.40;;;;;;;2.22;100.00;100273.66;5016131;28;19921;-71
2024/01/31 07:12:47;;;;;;;32.70;12.30;;;;;;;2.25;100.00;100260.38;5012708;28;20053;-71
2024/01/31 07:15:17;;;;;;;28.03;12.87;;;;;;;2.26;100.00;100251.59;4993498;28;20033;-71
2024/01/31 07:17:43;;;;;;;22.90;10.53;;;;;;;2.28;100.00;100243.63;5040709;28;20041;-71
2024/01/31 07:20:10;;;;;;;24.83;11.73;;;;;;;2.32;100.00;100250.38;5035843;28;20411;-71
2024/01/31 07:22:35;;;;;;;29.20;12.03;;;;;;;2.32;100.00;100242.53;5035362;28;20103;-70
2024/01/31 07:25:02;;;;;;;27.37;12.10;;;;;;;2.26;100.00;100259.44;5032870;28;20045;-70
2024/01/31 07:27:29;;;;;;;25.67;12.67;;;;;;;2.28;100.00;100257.59;5033678;28;20041;-73
2024/01/31 07:29:56;;;;;;;23.93;11.33;;;;;;;2.25;100.00;100239.41;5033816;28;20067;-72
2024/01/31 07:32:22;;;;;;;22.67;11.50;;;;;;;2.24;100.00;100247.38;5000542;28;20049;-72
2024/01/31 07:34:48;;;;;;;20.30;10.77;;;;;;;2.24;100.00;100242.13;5017268;28;20136;-72
2024/01/31 07:37:13;;;;;;;20.03;10.73;;;;;;;2.29;100.00;100235.66;5016213;28;20148;-71
2024/01/31 07:39:41;;;;;;;21.97;11.10;;;;;;;2.27;100.00;100237.56;5032719;28;20041;-70
2024/01/31 07:42:08;;;;;;;24.43;12.23;;;;;;;2.29;100.00;100221.75;5032869;28;20483;-71
2024/01/31 07:44:34;;;;;;;24.23;12.13;;;;;;;2.28;100.00;100227.91;5016589;28;20426;-71
2024/01/31 07:47:02;;;;;;;25.90;12.43;;;;;;;2.35;100.00;100235.34;5015776;28;20182;-69
2024/01/31 07:49:29;;;;;;;26.13;11.57;;;;;;;2.31;100.00;100228.56;5016763;28;20077;-70
2024/01/31 07:51:57;;;;;;;25.80;12.10;;;;;;;2.29;100.00;100240.91;5032264;28;20045;-70
2024/01/31 07:54:23;;;;;;;23.37;12.57;;;;;;;2.30;100.00;100221.66;4999470;28;20432;-71
2024/01/31 07:56:49;;;;;;;24.60;12.63;;;;;;;2.31;100.00;100231.19;5049101;28;20045;-71
2024/01/31 07:59:14;;;;;;;25.70;12.00;;;;;;;2.29;100.00;100219.94;5032634;28;20060;-72
2024/01/31 08:01:40;;;;;;;23.67;12.33;;;;;;;2.29;100.00;100229.59;5032024;28;20071;-70
2024/01/31 08:04:07;;;;;;;23.53;12.53;;;;;;;2.21;100.00;100223.97;5028044;28;20037;-73
2024/01/31 08:06:33;;;;;;;25.30;12.47;;;;;;;2.16;100.00;100213.78;5005227;28;20065;-71
2024/01/31 08:08:59;;;;;;;29.97;11.63;;;;;;;2.07;100.00;100213.47;5006925;28;20069;-73
2024/01/31 08:11:25;;;;;;;23.80;11.50;;;;;;;2.06;100.00;100215.22;5039424;28;20080;-70
2024/01/31 08:13:51;;;;;;;23.20;13.03;;;;;;;2.01;100.00;100214.69;5025079;28;20037;-72
2024/01/31 08:16:17;;;;;;;24.80;13.10;;;;;;;1.97;100.00;100202.69;5039962;28;20442;-70
2024/01/31 08:18:42;;;;;;;23.13;12.87;;;;;;;1.96;100.00;100206.25;5035468;28;20084;-70
2024/01/31 08:21:08;;;;;;;26.37;12.70;;;;;;;2.05;100.00;100197.84;5035468;28;20099;-69
2024/01/31 08:23:34;;;;;;;23.57;11.87;;;;;;;2.03;100.00;100194.47;5003659;28;20045;-69
2024/01/31 08:26:00;;;;;;;24.53;13.43;;;;;;;2.04;100.00;100184.84;5044734;28;20479;-70
2024/01/31 08:28:26;;;;;;;22.77;12.93;;;;;;;2.03;100.00;100196.25;5044343;28;20068;-71
2024/01/31 08:30:52;;;;;;;25.47;12.63;;;;;;;2.00;100.00;100193.81;5028133;28;20049;-69
2024/01/31 08:33:18;;;;;;;20.70;11.80;;;;;;;1.97;100.00;100207.91;5056573;28;20045;-69
2024/01/31 08:35:44;;;;;;;21.57;12.00;;;;;;;1.94;100.00;100215.97;5053649;28;20120;-71
2024/01/31 08:38:12;;;;;;;23.93;13.97;;;;;;;1.96;100.00;100206.25;5045226;28;20068;-71
2024/01/31 08:40:39;;;;;;;24.37;13.20;;;;;;;1.89;100.00;100183.13;5028914;28;20099;-71
2024/01/31 08:43:05;;;;;;;25.63;12.80;;;;;;;1.84;100.00;100204.34;5008124;28;20029;-71
2024/01/31 08:45:34;;;;;;;24.63;12.93;;;;;;;1.86;100.00;100188.53;5027183;28;20121;-71
2024/01/31 08:48:00;;;;;;;26.10;13.93;;;;;;;1.82;100.00;100189.63;5010664;28;20072;-71
2024/01/31 08:50:26;;;;;;;23.00;12.67;;;;;;;1.82;100.00;100200.13;5015236;28;20057;-71
2024/01/31 08:52:53;;;;;;;20.57;12.67;;;;;;;1.82;100.00;100181.78;5026479;28;20372;-72
2024/01/31 08:55:19;;;;;;;18.30;11.03;;;;;;;1.84;100.00;100179.94;5040327;28;20049;-71
2024/01/31 08:57:45;;;;;;;17.67;10.17;;;;;;;1.73;100.00;100175.31;5042107;28;20540;-71
2024/01/31 09:00:13;;;;;;;19.87;11.17;;;;;;;1.79;100.00;100164.50;5032537;28;20044;-71
2024/01/31 09:02:39;;;;;;;22.23;11.37;;;;;;;1.79;100.00;100148.78;5035348;28;20144;-70
2024/01/31 09:05:06;;;;;;;17.83;10.53;;;;;;;1.81;100.00;100143.44;5017271;28;20048;-71
2024/01/31 09:07:32;;;;;;;19.33;10.80;;;;;;;1.81;100.00;100167.00;5034945;28;20146;-72
2024/01/31 09:09:57;;;;;;;21.83;11.57;;;;;;;1.81;100.00;100135.59;5018900;28;20135;-71
2024/01/31 09:12:24;;;;;;;21.40;11.33;;;;;;;1.78;100.00;100136.63;5034728;28;20060;-70
2024/01/31 09:14:50;;;;;;;19.90;11.77;;;;;;;1.79;100.00;100130.44;5017844;28;20048;-71
2024/01/31 09:17:16;;;;;;;18.77;11.87;;;;;;;1.76;100.00;100120.16;5035298;28;20100;-71
2024/01/31 09:19:41;;;;;;;18.97;11.30;;;;;;;1.84;100.00;100117.06;5051339;28;20041;-70
2024/01/31 09:22:10;;;;;;;18.63;10.90;;;;;;;1.96;100.00;100111.94;5018552;28;20048;-72
2024/01/31 09:24:36;;;;;;;18.10;10.20;;;;;;;1.92;100.00;100125.31;5018222;28;20499;-70
2024/01/31 09:27:01;;;;;;;16.50;9.93;;;;;;;1.93;100.00;100108.66;5034525;28;20143;-71
2024/01/31 09:29:29;;;;;;;22.53;11.90;;;;;;;1.99;100.00;100139.72;5050946;28;20170;-72
2024/01/31 09:31:55;;;;;;;16.90;10.80;;;;;;;1.98;100.00;100120.56;5051661;28;20083;-71
2024/01/31 09:34:21;;;;;;;19.43;11.93;;;;;;;1.88;100.00;100103.72;5015436;28;21037;-71
2024/01/31 09:36:49;;;;;;;17.50;10.83;;;;;;;1.93;100.00;100113.91;5031661;28;20041;-71
2024/01/31 09:39:16;;;;;;;21.80;12.13;;;;;;;1.93;100.00;100096.44;5029351;28;20052;-73
2024/01/31 09:41:45;;;;;;;17.73;11.37;;;;;;;1.87;100.00;100088.94;5021386;28;20042;-72
2024/01/31 09:44:14;;;;;;;20.50;12.10;;;;;;;1.95;100.00;100084.09;5026965;28;20515;-71
2024/01/31 09:46:49;;;;;;;19.25;11.02;;;;;;;1.99;100.00;100074.25;5009177;28;20591;-73
2024/01/31 09:49:17;;;;;;;20.40;12.03;;;;;;;1.94;100.00;100056.19;4959669;28;20042;-72
2024/01/31 09:51:44;;;;;;;19.80;12.23;;;;;;;1.89;100.00;100062.66;4990585;28;20452;-68
2024/01/31 09:54:16;;;;;;;21.53;11.80;;;;;;;1.75;100.00;100066.94;4949775;28;20630;-70
2024/01/31 09:56:45;;;;;;;22.30;12.73;;;;;;;1.86;100.00;100053.19;4955894;28;20062;-70
2024/01/31 09:59:29;;;;;;;20.17;11.33;;;;;;;1.81;100.00;100036.94;4990045;28;20050;-72
2024/01/31 10:02:04;;;;;;;20.23;11.20;;;;;;;1.82;100.00;100022.91;4953977;28;20126;-71
2024/01/31 10:04:38;;;;;;;18.03;10.87;;;;;;;1.89;100.00;100021.59;4965444;28;20070;-71
2024/01/31 10:07:08;;;;;;;19.63;11.13;;;;;;;1.90;100.00;100027.66;4973706;28;20561;-72
2024/01/31 10:09:37;;;;;;;15.70;10.63;;;;;;;1.86;100.00;100032.25;4957343;28;20055;-70
2024/01/31 10:12:07;;;;;;;18.83;11.50;;;;;;;1.75;100.00;100039.94;4974783;28;20070;-71
2024/01/31 10:14:33;;;;;;;18.60;10.50;;;;;;;1.74;100.00;100046.09;4970302;28;20095;-72
2024/01/31 10:17:01;;;;;;;19.63;9.93;;;;;;;1.81;100.00;100052.66;4950247;28;20054;-72
2024/01/31 10:19:27;;;;;;;20.33;10.90;;;;;;;1.78;100.00;100051.03;4884888;29;20055;-70
2024/01/31 10:21:58;;;;;;;18.90;10.67;;;;;;;1.91;100.00;100042.47;4901021;29;20053;-71
2024/01/31 10:24:26;;;;;;;21.57;11.77;;;;;;;1.84;100.00;100034.13;4900677;29;20135;-71
2024/01/31 10:26:57;;;;;;;20.83;11.67;;;;;;;1.96;100.00;100038.63;4924863;29;20875;-71
2024/01/31 10:29:52;;;;;;;22.20;11.77;;;;;;;2.10;100.00;100022.88;4900646;29;20055;-73
2024/01/31 10:32:28;;;;;;;23.13;12.93;;;;;;;1.96;100.00;100012.41;4916661;29;20143;-72
2024/01/31 10:35:25;;;;;;;27.50;13.47;;;;;;;1.96;100.00;100028.13;4932488;29;20071;-72
2024/01/31 10:37:53;;;;;;;22.13;12.10;;;;;;;1.97;100.00;100002.81;4941396;29;20063;-70
2024/01/31 10:40:43;;;;;;;19.83;10.67;;;;;;;2.10;100.00;100011.56;4901685;29;20098;-69
2024/01/31 10:43:11;;;;;;;18.73;11.27;;;;;;;2.07;100.00;100009.13;4926698;29;20059;-70
2024/01/31 10:45:38;;;;;;;17.93;10.60;;;;;;;2.07;100.00;100012.59;4945537;29;20510;-69
2024/01/31 10:48:05;;;;;;;23.50;11.87;;;;;;;2.24;100.00;99987.97;4940025;28;20142;-71
2024/01/31 10:50:35;;;;;;;18.93;11.33;;;;;;;2.38;100.00;99991.38;4922543;29;20059;-70
2024/01/31 10:53:04;;;;;;;18.70;11.27;;;;;;;2.43;100.00;99997.16;4890805;29;20063;-70
2024/01/31 10:55:29;;;;;;;17.47;10.13;;;;;;;2.20;100.00;99974.19;4953407;28;20529;-70
2024/01/31 10:57:56;;;;;;;17.80;10.17;;;;;;;2.24;100.00;99987.97;4956438;28;20051;-70
2024/01/31 11:00:30;;;;;;;20.17;10.77;;;;;;;2.30;100.00;99984.94;4957652;28;20070;-71
2024/01/31 11:02:57;;;;;;;19.63;10.47;;;;;;;2.23;100.00;99974.00;4942224;28;20073;-69
2024/01/31 11:05:27;;;;;;;15.73;9.97;;;;;;;2.37;100.00;99966.09;4957554;28;20062;-70
2024/01/31 11:07:53;;;;;;;20.73;11.37;;;;;;;2.26;100.00;99973.81;4975481;28;20047;-71
2024/01/31 11:10:22;;;;;;;17.67;10.53;;;;;;;2.39;100.00;99951.13;4959859;28;20112;-70